< < Back
Terminal Aerodrome Forecast


Current Version              Previous Versions:   1  2  3  4  5  6  7  8  9  

Terminal Aerodrome Forecast

796
FTUS44 KHUN 042137 AAB
TAFHSV
TAF AMD
KHSV 042137Z 0422/0518 26015G40KT 5SM TSRA BKN050CB
     FM042300 32014G21KT P6SM SCT060
     FM050700 33004KT P6SM SKC WS020/35035KT
     FM051400 32015G25KT P6SM SCT050=

Latest METAR

078
SAUS80 KWBC 042256
MTRHSV
METAR KHSV 042253Z 35005KT 10SM -RA BKN060 BKN075 16/13 A2974 RMK AO2
WSHFT 2140 RAE21B42 TSE16 SLP068 P0002 T01610133


USA.gov is the U.S. government's official web portal to all federal, state and local government web resources and services.